createdAt,value
2023-03-22T00:01:09.799Z,12.07
2023-03-22T00:03:57.513Z,3.05
2023-03-22T00:06:44.453Z,13.85
2023-03-22T00:09:32.739Z,21.20
2023-03-22T00:12:19.440Z,3.92
2023-03-22T00:15:06.398Z,3.70
2023-03-22T00:17:53.442Z,4.25
2023-03-22T00:20:59.445Z,15.90
2023-03-22T00:23:46.868Z,20.70
2023-03-22T00:26:33.071Z,18.25
2023-03-22T00:29:21.162Z,15.25
2023-03-22T00:32:07.723Z,15.90
2023-03-22T00:34:54.238Z,14.95
2023-03-22T00:37:41.273Z,14.07
2023-03-22T00:40:28.002Z,16.00
2023-03-22T00:43:15.858Z,16.08
2023-03-22T00:46:03.148Z,16.60
2023-03-22T00:49:07.840Z,13.40
2023-03-22T00:51:54.015Z,16.90
2023-03-22T00:54:40.319Z,3.92
2023-03-22T00:57:26.625Z,11.30
2023-03-22T01:00:16.390Z,12.40
2023-03-22T01:03:24.812Z,11.18
2023-03-22T01:06:11.971Z,13.50
2023-03-22T01:08:58.253Z,3.03
2023-03-22T01:11:45.899Z,11.25
2023-03-22T01:17:24.518Z,12.75
2023-03-22T01:20:29.506Z,12.75
2023-03-22T01:23:16.091Z,3.05
2023-03-22T01:26:02.200Z,3.60
2023-03-22T01:28:48.250Z,13.23
2023-03-22T01:31:34.725Z,14.35
2023-03-22T01:34:22.449Z,2.45
2023-03-22T01:37:09.300Z,12.35
2023-03-22T01:39:59.176Z,13.88
2023-03-22T01:42:45.312Z,3.75
2023-03-22T01:45:38.993Z,15.50
2023-03-22T01:48:42.208Z,15.75
2023-03-22T01:51:29.006Z,2.55
2023-03-22T01:54:24.866Z,2.58
2023-03-22T01:57:11.492Z,14.82
2023-03-22T02:00:00.819Z,9.98
2023-03-22T02:03:07.365Z,3.17
2023-03-22T02:06:03.303Z,12.02
2023-03-22T02:08:53.091Z,8.60
2023-03-22T02:11:42.002Z,5.97
2023-03-22T02:15:09.833Z,8.18
2023-03-22T02:18:35.834Z,6.80
2023-03-22T02:22:04.465Z,2.90
2023-03-22T02:25:17.805Z,7.57
2023-03-22T02:28:16.324Z,9.40
2023-03-22T02:31:21.167Z,12.98
2023-03-22T02:34:21.061Z,3.28
2023-03-22T02:37:16.498Z,12.73
2023-03-22T02:40:14.768Z,6.63
2023-03-22T02:43:01.191Z,1.75
2023-03-22T02:45:54.764Z,6.43
2023-03-22T02:48:44.901Z,9.82
2023-03-22T02:51:34.095Z,7.32
2023-03-22T02:54:28.994Z,8.02
2023-03-22T02:57:15.219Z,5.07
2023-03-22T03:00:04.345Z,2.50
2023-03-22T03:02:54.870Z,11.45
2023-03-22T03:05:43.123Z,1.85
2023-03-22T03:08:31.118Z,6.55
2023-03-22T03:11:20.437Z,3.05
2023-03-22T03:14:07.635Z,5.88
2023-03-22T03:17:02.697Z,5.53
2023-03-22T03:19:56.030Z,1.58
2023-03-22T03:22:49.953Z,4.60
2023-03-22T03:25:48.429Z,1.55
2023-03-22T03:28:49.930Z,2.42
2023-03-22T03:31:47.387Z,10.50
2023-03-22T03:34:57.332Z,0.95
2023-03-22T03:37:48.504Z,3.70
2023-03-22T03:40:37.718Z,4.63
2023-03-22T03:43:25.781Z,6.15
2023-03-22T03:46:12.589Z,3.67
2023-03-22T03:48:59.711Z,12.10
2023-03-22T03:51:46.864Z,9.60
2023-03-22T03:54:33.478Z,7.28
2023-03-22T03:57:20.095Z,2.38
2023-03-22T04:00:09.565Z,2.78
2023-03-22T04:03:24.695Z,9.35
2023-03-22T04:06:27.390Z,2.20
2023-03-22T04:09:18.606Z,10.00
2023-03-22T04:12:12.322Z,3.50
2023-03-22T04:14:59.048Z,5.38
2023-03-22T04:17:47.356Z,9.48
2023-03-22T04:20:35.085Z,3.05
2023-03-22T04:23:25.854Z,2.95
2023-03-22T04:26:12.858Z,10.68
2023-03-22T04:29:13.334Z,5.43
2023-03-22T04:32:04.091Z,10.55
2023-03-22T04:34:56.962Z,7.47
2023-03-22T04:37:43.404Z,6.35
2023-03-22T04:40:36.900Z,9.45
2023-03-22T04:43:28.765Z,7.28
2023-03-22T04:46:21.422Z,8.98
2023-03-22T04:49:18.518Z,7.65
2023-03-22T04:52:04.780Z,11.93
2023-03-22T04:54:55.064Z,13.02
2023-03-22T04:57:42.357Z,7.30
2023-03-22T05:00:30.491Z,12.02
2023-03-22T05:03:19.402Z,10.93
2023-03-22T05:06:07.170Z,6.68
2023-03-22T05:09:01.673Z,8.30
2023-03-22T05:11:48.613Z,7.40
2023-03-22T05:14:57.667Z,8.98
2023-03-22T05:17:49.645Z,2.25
2023-03-22T05:20:57.487Z,2.83
2023-03-22T05:23:44.731Z,5.30
2023-03-22T05:26:31.649Z,6.00
2023-03-22T05:29:17.788Z,8.23
2023-03-22T05:32:25.714Z,6.47
2023-03-22T05:35:14.545Z,19.92
2023-03-22T05:38:06.414Z,7.32
2023-03-22T05:40:55.845Z,2.80
2023-03-22T05:43:42.533Z,18.63
2023-03-22T05:46:31.138Z,10.38
2023-03-22T05:49:35.910Z,14.43
2023-03-22T05:52:23.274Z,4.22
2023-03-22T05:55:30.443Z,4.03
2023-03-22T05:58:19.307Z,6.93
2023-03-22T06:01:11.838Z,2.75
2023-03-22T06:04:16.814Z,10.05
2023-03-22T06:07:14.036Z,9.70
2023-03-22T06:10:15.666Z,16.73
2023-03-22T06:13:02.000Z,5.68
2023-03-22T06:15:51.957Z,8.25
2023-03-22T06:18:43.616Z,3.10
2023-03-22T06:21:31.668Z,4.25
2023-03-22T06:24:17.827Z,2.08
2023-03-22T06:27:05.152Z,2.28
2023-03-22T06:29:54.846Z,15.27
2023-03-22T06:32:43.933Z,7.63
2023-03-22T06:35:30.240Z,8.20
2023-03-22T06:38:16.427Z,5.78
2023-03-22T06:41:03.698Z,11.25
2023-03-22T06:43:49.847Z,16.05
2023-03-22T06:47:01.843Z,12.97
2023-03-22T06:50:23.335Z,7.25
2023-03-22T06:53:20.918Z,25.58
2023-03-22T06:56:07.990Z,14.38
2023-03-22T06:59:05.364Z,5.80
2023-03-22T07:01:51.533Z,27.48
2023-03-22T07:04:37.866Z,24.55
2023-03-22T07:07:24.056Z,8.35
2023-03-22T07:10:10.595Z,17.42
2023-03-22T07:12:58.304Z,21.42
2023-03-22T07:15:44.790Z,18.95
2023-03-22T07:18:43.086Z,18.48
2023-03-22T07:21:30.133Z,20.73
2023-03-22T07:24:21.115Z,28.30
2023-03-22T07:27:08.014Z,22.88
2023-03-22T07:29:54.409Z,27.70
2023-03-22T07:32:41.748Z,19.30
2023-03-22T07:35:32.343Z,19.50
2023-03-22T07:38:19.362Z,20.70
2023-03-22T07:41:24.389Z,23.77
2023-03-22T07:44:29.047Z,20.48
2023-03-22T07:47:40.714Z,20.30
2023-03-22T07:50:49.868Z,25.60
2023-03-22T07:53:36.895Z,21.67
2023-03-22T07:56:23.128Z,19.55
2023-03-22T07:59:09.366Z,23.08
2023-03-22T08:01:56.091Z,28.83
2023-03-22T08:04:49.048Z,18.83
2023-03-22T08:07:57.591Z,9.00
2023-03-22T08:10:48.388Z,7.10
2023-03-22T08:13:34.606Z,7.35
2023-03-22T08:16:21.617Z,6.82
2023-03-22T08:19:07.852Z,7.07
2023-03-22T08:21:56.472Z,6.88
2023-03-22T08:25:18.611Z,6.35
2023-03-22T08:28:05.281Z,8.90
2023-03-22T08:30:51.441Z,5.78
2023-03-22T08:33:38.733Z,4.97
2023-03-22T08:36:43.586Z,5.85
2023-03-22T08:39:30.061Z,6.22
2023-03-22T08:42:32.894Z,7.30
2023-03-22T08:45:21.627Z,7.05
2023-03-22T08:48:14.101Z,6.63
2023-03-22T08:51:21.407Z,6.47
2023-03-22T08:54:28.382Z,7.53
2023-03-22T08:57:24.080Z,8.20
2023-03-22T09:00:21.197Z,6.63
2023-03-22T09:03:28.259Z,7.63
2023-03-22T09:06:14.819Z,7.93
2023-03-22T09:09:03.566Z,7.40
2023-03-22T09:11:50.739Z,8.35
2023-03-22T09:14:37.062Z,7.97
2023-03-22T09:17:23.630Z,8.23
2023-03-22T09:20:13.040Z,7.55
2023-03-22T09:25:48.499Z,7.28
2023-03-22T09:28:53.439Z,6.80
2023-03-22T09:31:39.912Z,6.63
2023-03-22T09:34:35.679Z,7.55
2023-03-22T09:37:30.325Z,7.65
2023-03-22T09:40:18.276Z,7.35
2023-03-22T09:43:06.733Z,6.60
2023-03-22T09:45:53.501Z,7.68
2023-03-22T09:48:41.199Z,7.28
2023-03-22T09:51:41.544Z,6.57
2023-03-22T09:54:35.920Z,6.88
2023-03-22T09:57:37.532Z,6.25
2023-03-22T10:00:47.579Z,6.22
2023-03-22T10:03:34.548Z,6.15
2023-03-22T10:06:22.205Z,7.00
2023-03-22T10:09:19.425Z,6.20
2023-03-22T10:12:11.263Z,4.95
2023-03-22T10:15:18.916Z,5.90
2023-03-22T10:18:09.992Z,10.27
2023-03-22T10:20:57.891Z,7.43
2023-03-22T10:24:23.395Z,11.88
2023-03-22T10:27:17.932Z,7.72
2023-03-22T10:30:19.556Z,5.93
2023-03-22T10:33:12.358Z,4.20
2023-03-22T10:35:58.671Z,4.45
2023-03-22T10:38:56.284Z,5.28
2023-03-22T10:41:43.298Z,4.32
2023-03-22T10:44:31.277Z,5.47
2023-03-22T10:47:18.872Z,5.07
2023-03-22T10:50:07.853Z,4.63
2023-03-22T10:53:05.737Z,4.68
2023-03-22T10:55:54.781Z,4.55
2023-03-22T10:58:46.896Z,5.00
2023-03-22T11:01:42.366Z,5.40
2023-03-22T11:04:33.593Z,5.18
2023-03-22T11:07:33.578Z,6.35
2023-03-22T11:10:24.515Z,5.93
2023-03-22T11:13:17.692Z,6.43
2023-03-22T11:16:07.631Z,5.30
2023-03-22T11:18:54.783Z,5.38
2023-03-22T11:21:47.740Z,6.95
2023-03-22T11:24:35.098Z,6.88
2023-03-22T11:27:26.401Z,6.53
2023-03-22T11:30:34.816Z,6.30
2023-03-22T11:33:22.042Z,7.47
2023-03-22T11:36:16.477Z,5.85
2023-03-22T11:39:06.686Z,6.00
2023-03-22T11:41:53.354Z,5.85
2023-03-22T11:44:39.645Z,6.22
2023-03-22T11:47:28.134Z,5.93
2023-03-22T11:50:29.015Z,5.40
2023-03-22T11:53:17.461Z,4.90
2023-03-22T11:56:07.589Z,4.50
2023-03-22T11:59:00.203Z,4.15
2023-03-22T12:01:52.592Z,4.82
2023-03-22T12:04:41.956Z,5.43
2023-03-22T12:07:41.289Z,4.20
2023-03-22T12:10:49.351Z,4.18
2023-03-22T12:13:54.424Z,4.22
2023-03-22T12:16:50.160Z,3.30
2023-03-22T12:19:47.311Z,3.83
2023-03-22T12:22:35.472Z,3.40
2023-03-22T12:25:24.074Z,4.43
2023-03-22T12:28:13.868Z,3.45
2023-03-22T12:31:00.948Z,3.55
2023-03-22T12:33:54.544Z,3.25
2023-03-22T12:36:43.059Z,4.55
2023-03-22T12:39:32.066Z,10.00
2023-03-22T12:42:22.370Z,7.88
2023-03-22T12:45:13.897Z,4.85
2023-03-22T12:48:19.060Z,2.97
2023-03-22T12:51:06.821Z,2.95
2023-03-22T12:53:55.061Z,2.95
2023-03-22T12:56:42.479Z,5.07
2023-03-22T12:59:30.213Z,4.25
2023-03-22T13:05:41.521Z,4.10
2023-03-22T13:08:48.227Z,3.80
2023-03-22T13:11:36.703Z,3.47
2023-03-22T13:14:42.937Z,3.22
2023-03-22T13:17:29.493Z,4.43
2023-03-22T13:20:20.145Z,3.85
2023-03-22T13:23:11.440Z,4.22
2023-03-22T13:26:02.758Z,4.15
2023-03-22T13:28:56.752Z,3.75
2023-03-22T13:31:47.274Z,3.60
2023-03-22T13:34:38.099Z,2.22
2023-03-22T13:37:31.739Z,3.78
2023-03-22T13:40:21.210Z,5.00
2023-03-22T13:43:21.320Z,3.50
2023-03-22T13:46:11.745Z,6.80
2023-03-22T13:49:13.871Z,2.65
2023-03-22T13:52:01.098Z,4.20
2023-03-22T13:54:49.532Z,2.40
2023-03-22T13:57:41.077Z,6.50
2023-03-22T14:00:30.562Z,8.35
2023-03-22T14:03:21.384Z,6.38
2023-03-22T14:06:11.141Z,4.45
2023-03-22T14:09:20.225Z,4.25
2023-03-22T14:12:31.206Z,4.05
2023-03-22T14:15:26.461Z,3.92
2023-03-22T14:18:30.956Z,4.05
2023-03-22T14:21:25.828Z,4.82
